createdAt,value
2022-11-23T00:01:36.120Z,94403.00
2022-11-23T00:04:07.816Z,94502.00
2022-11-23T00:06:37.333Z,94529.00
2022-11-23T00:09:06.539Z,94539.00
2022-11-23T00:11:37.165Z,94527.00
2022-11-23T00:14:05.758Z,94587.00
2022-11-23T00:16:34.138Z,94587.00
2022-11-23T00:19:03.530Z,94442.00
2022-11-23T00:21:33.678Z,94454.00
2022-11-23T00:24:02.191Z,94487.00
2022-11-23T00:26:30.311Z,94410.00
2022-11-23T00:28:59.926Z,94335.00
2022-11-23T00:31:28.608Z,94329.00
2022-11-23T00:33:58.322Z,94311.00
2022-11-23T00:36:28.591Z,94273.00
2022-11-23T00:38:57.885Z,94071.00
2022-11-23T00:41:28.726Z,94046.00
2022-11-23T00:43:57.159Z,94177.00
2022-11-23T00:46:28.764Z,94311.00
2022-11-23T00:48:58.493Z,94332.00
2022-11-23T00:51:30.529Z,94315.00
2022-11-23T00:54:00.179Z,94307.00
2022-11-23T00:56:28.695Z,94331.00
2022-11-23T00:58:59.595Z,94380.00
2022-11-23T01:01:33.847Z,94428.00
2022-11-23T01:04:04.250Z,94403.00
2022-11-23T01:06:35.813Z,94407.00
2022-11-23T01:09:15.997Z,94367.00
2022-11-23T01:11:44.571Z,94366.00
2022-11-23T01:14:13.058Z,94486.00
2022-11-23T01:16:43.318Z,94453.00
2022-11-23T01:19:15.207Z,94374.00
2022-11-23T01:21:43.777Z,94437.00
2022-11-23T01:24:17.761Z,94356.00
2022-11-23T01:26:46.544Z,94444.00
2022-11-23T01:29:14.613Z,94344.00
2022-11-23T01:31:46.820Z,94445.00
2022-11-23T01:34:19.161Z,94310.00
2022-11-23T01:36:47.423Z,94355.00
2022-11-23T01:39:16.799Z,94229.00
2022-11-23T01:41:47.117Z,94350.00
2022-11-23T01:44:39.626Z,94285.00
2022-11-23T01:47:10.765Z,94342.00
2022-11-23T01:49:43.006Z,94296.00
2022-11-23T01:52:16.545Z,94374.00
2022-11-23T01:54:49.544Z,94305.00
2022-11-23T01:57:25.634Z,94500.00
2022-11-23T01:59:56.273Z,94428.00
2022-11-23T02:02:30.988Z,95384.00
2022-11-23T02:05:03.108Z,95361.00
2022-11-23T02:07:33.277Z,95305.00
2022-11-23T02:10:02.218Z,95370.00
2022-11-23T02:12:31.140Z,95355.00
2022-11-23T02:14:59.219Z,95320.00
2022-11-23T02:17:28.712Z,95333.00
2022-11-23T02:20:08.571Z,95362.00
2022-11-23T02:22:50.469Z,95323.00
2022-11-23T02:25:31.863Z,95316.00
2022-11-23T02:28:02.505Z,95385.00
2022-11-23T02:30:32.619Z,95389.00
2022-11-23T02:33:00.707Z,95389.00
2022-11-23T02:35:28.787Z,95454.00
2022-11-23T02:37:57.068Z,95445.00
2022-11-23T02:40:32.916Z,95440.00
2022-11-23T02:43:03.596Z,95402.00
2022-11-23T02:45:39.838Z,95386.00
2022-11-23T02:48:08.053Z,95404.00
2022-11-23T02:50:38.922Z,95375.00
2022-11-23T02:53:09.409Z,95339.00
2022-11-23T02:55:38.023Z,95372.00
2022-11-23T02:58:08.400Z,95459.00
2022-11-23T03:00:37.215Z,95383.00
2022-11-23T03:03:05.480Z,95443.00
2022-11-23T03:05:34.428Z,95417.00
2022-11-23T03:08:06.797Z,95470.00
2022-11-23T03:10:35.711Z,95435.00
2022-11-23T03:13:03.809Z,95479.00
2022-11-23T03:15:37.898Z,95424.00
2022-11-23T03:18:07.301Z,95343.00
2022-11-23T03:20:36.584Z,95396.00
2022-11-23T03:23:05.904Z,95505.00
2022-11-23T03:25:34.132Z,95493.00
2022-11-23T03:28:04.527Z,95511.00
2022-11-23T03:30:34.319Z,95517.00
2022-11-23T03:33:06.370Z,95480.00
2022-11-23T03:35:34.809Z,95474.00
2022-11-23T03:38:20.487Z,95510.00
2022-11-23T03:40:50.191Z,95503.00
2022-11-23T03:43:26.722Z,95505.00
2022-11-23T03:45:54.876Z,95502.00
2022-11-23T03:48:25.038Z,95511.00
2022-11-23T03:50:53.931Z,95488.00
2022-11-23T03:53:22.029Z,95478.00
2022-11-23T03:55:50.094Z,95482.00
2022-11-23T03:58:18.587Z,95495.00
2022-11-23T04:00:47.693Z,95502.00
2022-11-23T04:03:17.027Z,95502.00
2022-11-23T04:06:13.446Z,95496.00
2022-11-23T04:09:02.302Z,95518.00
2022-11-23T04:11:50.892Z,95484.00
2022-11-23T04:14:20.458Z,95492.00
2022-11-23T04:16:49.411Z,95524.00
2022-11-23T04:19:17.544Z,95489.00
2022-11-23T04:21:47.010Z,94905.00
2022-11-23T04:24:15.988Z,95519.00
2022-11-23T04:26:46.462Z,95571.00
2022-11-23T04:29:14.673Z,95546.00
2022-11-23T04:31:47.753Z,95576.00
2022-11-23T04:34:19.450Z,95529.00
2022-11-23T04:36:50.963Z,95528.00
2022-11-23T04:39:21.930Z,95520.00
2022-11-23T04:42:08.543Z,95527.00
2022-11-23T04:44:36.752Z,95507.00
2022-11-23T04:47:06.736Z,95500.00
2022-11-23T04:49:38.200Z,95523.00
2022-11-23T04:52:07.896Z,95480.00
2022-11-23T04:54:42.689Z,95470.00
2022-11-23T04:57:11.179Z,95492.00
2022-11-23T04:59:40.377Z,95550.00
2022-11-23T05:02:08.887Z,95525.00
2022-11-23T05:04:44.452Z,95478.00
2022-11-23T05:07:15.214Z,95479.00
2022-11-23T05:09:46.582Z,95486.00
2022-11-23T05:12:18.263Z,95463.00
2022-11-23T05:14:46.481Z,95485.00
2022-11-23T05:17:19.894Z,95483.00
2022-11-23T05:19:49.568Z,95524.00
2022-11-23T05:22:19.141Z,95485.00
2022-11-23T05:24:47.471Z,95512.00
2022-11-23T05:27:19.604Z,95502.00
2022-11-23T05:29:47.735Z,95508.00
2022-11-23T05:32:16.178Z,95532.00
2022-11-23T05:34:44.464Z,95571.00
2022-11-23T05:37:15.392Z,95550.00
2022-11-23T05:39:53.845Z,95555.00
2022-11-23T05:42:24.842Z,95553.00
2022-11-23T05:44:56.612Z,95492.00
2022-11-23T05:47:33.396Z,95537.00
2022-11-23T05:50:04.694Z,95548.00
2022-11-23T05:52:33.963Z,95535.00
2022-11-23T05:55:03.427Z,95580.00
2022-11-23T05:57:31.564Z,95832.00
2022-11-23T05:59:59.890Z,95231.00
2022-11-23T06:02:41.339Z,95124.00
2022-11-23T06:05:11.087Z,95320.00
2022-11-23T06:07:47.619Z,95276.00
2022-11-23T06:10:17.420Z,95160.00
2022-11-23T06:12:49.950Z,95198.00
2022-11-23T06:15:20.034Z,95175.00
2022-11-23T06:17:49.537Z,95155.00
2022-11-23T06:20:21.684Z,95249.00
2022-11-23T06:22:58.112Z,95835.00
2022-11-23T06:25:28.975Z,95424.00
2022-11-23T06:28:06.801Z,95505.00
2022-11-23T06:30:43.420Z,95534.00
2022-11-23T06:33:11.659Z,95489.00
2022-11-23T06:35:55.013Z,95511.00
2022-11-23T06:38:25.117Z,95464.00
2022-11-23T06:41:03.479Z,95494.00
2022-11-23T06:43:32.662Z,95489.00
2022-11-23T06:46:06.779Z,95511.00
2022-11-23T06:48:38.785Z,95525.00
2022-11-23T06:51:08.234Z,95517.00
2022-11-23T06:53:38.592Z,95478.00
2022-11-23T06:56:11.076Z,95520.00
2022-11-23T06:58:40.063Z,95587.00
2022-11-23T07:01:13.530Z,95519.00
2022-11-23T07:03:58.898Z,95562.00
2022-11-23T07:06:30.735Z,95560.00
2022-11-23T07:09:02.850Z,95533.00
2022-11-23T07:12:01.628Z,95571.00
2022-11-23T07:14:29.814Z,95626.00
2022-11-23T07:16:58.365Z,95503.00
2022-11-23T07:19:26.613Z,95493.00
2022-11-23T07:21:58.214Z,93902.00
2022-11-23T07:24:27.222Z,95589.00
2022-11-23T07:26:55.324Z,95518.00
2022-11-23T07:29:24.883Z,95508.00
2022-11-23T07:31:53.652Z,95533.00
2022-11-23T07:34:25.571Z,95590.00
2022-11-23T07:36:56.818Z,95574.00
2022-11-23T07:39:54.981Z,95569.00
2022-11-23T07:42:32.748Z,95570.00
2022-11-23T07:45:05.387Z,95548.00
2022-11-23T07:47:34.144Z,95580.00
2022-11-23T07:50:02.258Z,95559.00
2022-11-23T07:52:30.523Z,95518.00
2022-11-23T07:55:00.207Z,95537.00
2022-11-23T07:57:28.899Z,95526.00
2022-11-23T07:59:57.006Z,95653.00
2022-11-23T08:02:26.581Z,95648.00
2022-11-23T08:04:55.462Z,95680.00
2022-11-23T08:07:23.675Z,95629.00
2022-11-23T08:09:51.857Z,95642.00
2022-11-23T08:12:19.909Z,95616.00
2022-11-23T08:14:47.978Z,95617.00
2022-11-23T08:17:16.082Z,95620.00
2022-11-23T08:19:45.463Z,95625.00
2022-11-23T08:22:15.836Z,95660.00
2022-11-23T08:24:44.200Z,95649.00
2022-11-23T08:27:12.455Z,95641.00
2022-11-23T08:29:40.492Z,95650.00
2022-11-23T08:32:08.540Z,95649.00
2022-11-23T08:34:37.624Z,95652.00
2022-11-23T08:37:07.020Z,95623.00
2022-11-23T08:39:35.123Z,95650.00
2022-11-23T08:42:03.307Z,95561.00
2022-11-23T08:44:31.630Z,95632.00
2022-11-23T08:46:59.992Z,95651.00
2022-11-23T08:49:28.116Z,95641.00
2022-11-23T08:51:56.231Z,95635.00
2022-11-23T08:54:25.707Z,95696.00
2022-11-23T08:56:54.142Z,94311.00
2022-11-23T08:59:22.620Z,94541.00
2022-11-23T09:01:50.761Z,94677.00
2022-11-23T09:04:20.868Z,94496.00
2022-11-23T09:06:49.238Z,94546.00
2022-11-23T09:09:17.292Z,94434.00
2022-11-23T09:11:46.740Z,94309.00
2022-11-23T09:14:15.090Z,94364.00
2022-11-23T09:16:43.156Z,94162.00
2022-11-23T09:19:14.869Z,94045.00
2022-11-23T09:21:43.258Z,93874.00
2022-11-23T09:24:12.616Z,93871.00
2022-11-23T09:26:41.747Z,93972.00
2022-11-23T09:29:11.397Z,93972.00
2022-11-23T09:31:39.843Z,94026.00
2022-11-23T09:34:07.961Z,94068.00
2022-11-23T09:36:36.028Z,93994.00
2022-11-23T09:39:04.322Z,94065.00
2022-11-23T09:42:14.368Z,93955.00
2022-11-23T09:45:09.716Z,94253.00
2022-11-23T09:48:00.962Z,94066.00
2022-11-23T09:50:36.161Z,93942.00
2022-11-23T09:53:13.257Z,94056.00
2022-11-23T09:55:45.640Z,94004.00
2022-11-23T09:58:18.903Z,94546.00
2022-11-23T10:00:53.476Z,94525.00
2022-11-23T10:03:21.571Z,94453.00
2022-11-23T10:06:03.609Z,94264.00
2022-11-23T10:08:46.065Z,94238.00
2022-11-23T10:11:40.033Z,94241.00
2022-11-23T10:14:29.732Z,94222.00
2022-11-23T10:17:20.994Z,94241.00
2022-11-23T10:20:16.630Z,94234.00
2022-11-23T10:22:57.832Z,94057.00
2022-11-23T10:25:28.742Z,94268.00
2022-11-23T10:28:03.103Z,94059.00
2022-11-23T10:30:31.184Z,94196.00
2022-11-23T10:33:14.622Z,94188.00
2022-11-23T10:35:42.670Z,94744.00
2022-11-23T10:38:18.403Z,94043.00
2022-11-23T10:41:03.503Z,93944.00
2022-11-23T10:43:40.075Z,93897.00
2022-11-23T10:46:29.206Z,93930.00
2022-11-23T10:49:16.223Z,93869.00
2022-11-23T10:51:53.576Z,93957.00
2022-11-23T10:54:30.758Z,93914.00
2022-11-23T10:57:01.789Z,94044.00
2022-11-23T10:59:35.114Z,94053.00
2022-11-23T11:02:25.404Z,94059.00
2022-11-23T11:05:40.235Z,94068.00
2022-11-23T11:08:17.915Z,94109.00
2022-11-23T11:10:50.407Z,93937.00
2022-11-23T11:13:29.806Z,93897.00
2022-11-23T11:16:01.171Z,93942.00
2022-11-23T11:18:34.343Z,93932.00
2022-11-23T11:21:07.660Z,93981.00
2022-11-23T11:23:39.914Z,93978.00
2022-11-23T11:26:19.679Z,94009.00
2022-11-23T11:28:52.412Z,94056.00
2022-11-23T11:31:46.170Z,94020.00
2022-11-23T11:34:26.177Z,94044.00
2022-11-23T11:37:09.692Z,94069.00
2022-11-23T11:39:46.822Z,94136.00
2022-11-23T11:42:21.984Z,94271.00
2022-11-23T11:44:56.129Z,94263.00
2022-11-23T11:47:32.755Z,94086.00
2022-11-23T11:50:11.824Z,94136.00
2022-11-23T11:52:45.659Z,94157.00
2022-11-23T11:55:22.123Z,94408.00
2022-11-23T11:58:04.116Z,94299.00
2022-11-23T12:00:42.170Z,94536.00
2022-11-23T12:03:24.079Z,94404.00
2022-11-23T12:05:55.513Z,94437.00
2022-11-23T12:08:36.877Z,94384.00
2022-11-23T12:11:06.667Z,94336.00
2022-11-23T12:13:38.016Z,94473.00
2022-11-23T12:16:23.349Z,94415.00
2022-11-23T12:19:12.654Z,94393.00
2022-11-23T12:22:29.709Z,94402.00
2022-11-23T12:25:23.715Z,94421.00
2022-11-23T12:28:10.689Z,94309.00
2022-11-23T12:30:50.919Z,94339.00
2022-11-23T12:33:46.822Z,94360.00
2022-11-23T12:36:46.755Z,94412.00
2022-11-23T12:39:41.249Z,94436.00
2022-11-23T12:42:21.930Z,94475.00
2022-11-23T12:45:19.699Z,94563.00
2022-11-23T12:48:00.675Z,94594.00
2022-11-23T12:50:36.337Z,94622.00
2022-11-23T12:53:27.451Z,94379.00
2022-11-23T12:56:07.904Z,94503.00
2022-11-23T12:58:40.573Z,94534.00
2022-11-23T13:01:16.999Z,94658.00
2022-11-23T13:04:33.876Z,94355.00
2022-11-23T13:07:59.063Z,94402.00
2022-11-23T13:10:46.645Z,94330.00
2022-11-23T13:13:49.217Z,94373.00
2022-11-23T13:16:39.792Z,94397.00
2022-11-23T13:19:37.382Z,94403.00
2022-11-23T13:22:07.243Z,94296.00
2022-11-23T13:24:40.459Z,94240.00
2022-11-23T13:27:55.030Z,94345.00
2022-11-23T13:30:59.342Z,94425.00
2022-11-23T13:33:38.490Z,94476.00
2022-11-23T13:36:16.653Z,94427.00
2022-11-23T13:38:47.710Z,94406.00
2022-11-23T13:42:00.515Z,94397.00
2022-11-23T13:44:33.072Z,94506.00
2022-11-23T13:47:08.090Z,94843.00
2022-11-23T13:49:42.774Z,94447.00
2022-11-23T13:52:32.245Z,94423.00
2022-11-23T13:55:19.544Z,94461.00
2022-11-23T13:58:40.252Z,94356.00
2022-11-23T14:01:09.491Z,94381.00
2022-11-23T14:03:52.458Z,94387.00
2022-11-23T14:06:46.615Z,94375.00
2022-11-23T14:09:24.679Z,94296.00
2022-11-23T14:12:05.756Z,94192.00
2022-11-23T14:14:50.947Z,94184.00
2022-11-23T14:18:00.555Z,94224.00
2022-11-23T14:20:52.348Z,94185.00
2022-11-23T14:24:14.181Z,94210.00
2022-11-23T14:27:12.320Z,94309.00
2022-11-23T14:30:06.802Z,94152.00
2022-11-23T14:32:56.569Z,94132.00
2022-11-23T14:35:38.750Z,94152.00
2022-11-23T14:38:52.930Z,94146.00
2022-11-23T14:41:24.953Z,94164.00
2022-11-23T14:43:54.978Z,94110.00
2022-11-23T14:46:25.821Z,94258.00
2022-11-23T14:49:05.910Z,94213.00
2022-11-23T14:51:46.040Z,94228.00
2022-11-23T14:54:18.211Z,94233.00
2022-11-23T14:56:50.308Z,94201.00
2022-11-23T14:59:25.724Z,94195.00
2022-11-23T15:01:59.396Z,94179.00
2022-11-23T15:04:35.106Z,94206.00
2022-11-23T15:07:12.650Z,94133.00
2022-11-23T15:09:51.972Z,94178.00
2022-11-23T15:12:26.565Z,94187.00
2022-11-23T15:14:57.310Z,94156.00
2022-11-23T15:17:25.821Z,94264.00
2022-11-23T15:19:59.166Z,94255.00
2022-11-23T15:22:31.155Z,94239.00
2022-11-23T15:25:08.345Z,94219.00
2022-11-23T15:27:42.080Z,94359.00
2022-11-23T15:30:18.635Z,94047.00
2022-11-23T15:32:57.682Z,94040.00
2022-11-23T15:35:33.067Z,93971.00
2022-11-23T15:38:04.347Z,94177.00
2022-11-23T15:40:37.384Z,94263.00
2022-11-23T15:43:05.599Z,94126.00
2022-11-23T15:45:39.986Z,94129.00
2022-11-23T15:48:14.510Z,94242.00
2022-11-23T15:50:52.397Z,94300.00
2022-11-23T15:53:26.509Z,94329.00
2022-11-23T15:55:57.571Z,94328.00
2022-11-23T15:58:26.083Z,94260.00
2022-11-23T16:01:06.806Z,94287.00
2022-11-23T16:03:42.438Z,94179.00
2022-11-23T16:06:20.931Z,94189.00
2022-11-23T16:08:50.518Z,94244.00
2022-11-23T16:11:30.937Z,94196.00
2022-11-23T16:14:18.582Z,94125.00
2022-11-23T16:16:49.419Z,94103.00
2022-11-23T16:19:31.451Z,94245.00
2022-11-23T16:22:03.447Z,94239.00
2022-11-23T16:24:36.561Z,94178.00
2022-11-23T16:27:14.769Z,93997.00
2022-11-23T16:29:43.424Z,93988.00
2022-11-23T16:32:25.570Z,93966.00
2022-11-23T16:34:54.406Z,93938.00
2022-11-23T16:37:23.315Z,93944.00
2022-11-23T16:39:52.790Z,93952.00
2022-11-23T16:42:20.856Z,93947.00
2022-11-23T16:44:48.902Z,93935.00
2022-11-23T16:47:26.196Z,93951.00
2022-11-23T16:49:55.521Z,93954.00
2022-11-23T16:52:24.576Z,93973.00
2022-11-23T16:54:54.235Z,93926.00
2022-11-23T16:57:30.311Z,93941.00
2022-11-23T17:00:02.523Z,93883.00
2022-11-23T17:02:30.616Z,93960.00
2022-11-23T17:04:58.781Z,93978.00
2022-11-23T17:07:27.032Z,93966.00
2022-11-23T17:09:59.078Z,93980.00
2022-11-23T17:12:27.199Z,93987.00
2022-11-23T17:14:55.342Z,94088.00
2022-11-23T17:17:24.078Z,94139.00
2022-11-23T17:19:52.946Z,94128.00
2022-11-23T17:22:21.612Z,93931.00
2022-11-23T17:24:52.626Z,93899.00
2022-11-23T17:27:25.299Z,93916.00
2022-11-23T17:30:00.575Z,93889.00
2022-11-23T17:32:29.306Z,93882.00
2022-11-23T17:34:57.355Z,93884.00
2022-11-23T17:37:26.254Z,93889.00
2022-11-23T17:39:54.355Z,93896.00
2022-11-23T17:42:23.802Z,93887.00
2022-11-23T17:44:51.917Z,93913.00
2022-11-23T17:47:26.245Z,93907.00
2022-11-23T17:49:54.316Z,93865.00
2022-11-23T17:52:22.773Z,93907.00
2022-11-23T17:54:50.903Z,93854.00
2022-11-23T17:57:27.037Z,93848.00
2022-11-23T17:59:59.295Z,93831.00
2022-11-23T18:02:39.874Z,93876.00
2022-11-23T18:05:08.865Z,93862.00
2022-11-23T18:07:37.333Z,93837.00
2022-11-23T18:10:06.275Z,93851.00
2022-11-23T18:12:35.662Z,93875.00
2022-11-23T18:15:04.176Z,93857.00
2022-11-23T18:17:32.229Z,93878.00
2022-11-23T18:20:00.398Z,93875.00
2022-11-23T18:22:28.524Z,93879.00
2022-11-23T18:24:56.577Z,93870.00
2022-11-23T18:27:24.646Z,93886.00
2022-11-23T18:29:54.027Z,93878.00
2022-11-23T18:32:22.174Z,93897.00
2022-11-23T18:34:50.231Z,93906.00
2022-11-23T18:37:18.281Z,93922.00
2022-11-23T18:39:46.390Z,93900.00
2022-11-23T18:42:15.049Z,93938.00
2022-11-23T18:44:43.166Z,93927.00
2022-11-23T18:47:12.528Z,93945.00
2022-11-23T18:49:40.610Z,93966.00
2022-11-23T18:52:09.093Z,93957.00
2022-11-23T18:54:37.586Z,93974.00
2022-11-23T18:57:05.851Z,93981.00
2022-11-23T19:02:23.642Z,94051.00
2022-11-23T19:04:51.733Z,94053.00
2022-11-23T19:07:25.104Z,94036.00
2022-11-23T19:09:54.838Z,94139.00
2022-11-23T19:12:23.011Z,94136.00
2022-11-23T19:14:51.099Z,94053.00
2022-11-23T19:17:19.323Z,94046.00
2022-11-23T19:19:48.738Z,93948.00
2022-11-23T19:22:16.835Z,93952.00
2022-11-23T19:24:45.012Z,93920.00
2022-11-23T19:27:13.053Z,93949.00
2022-11-23T19:29:41.112Z,93969.00
2022-11-23T19:32:09.347Z,93974.00
2022-11-23T19:34:37.424Z,93981.00
2022-11-23T19:37:06.830Z,93958.00
2022-11-23T19:39:36.148Z,93954.00
2022-11-23T19:42:04.572Z,93969.00
2022-11-23T19:44:32.684Z,93973.00
2022-11-23T19:47:01.985Z,93967.00
2022-11-23T19:49:31.409Z,93842.00
2022-11-23T19:51:59.812Z,93959.00
2022-11-23T19:54:29.306Z,93952.00
2022-11-23T19:56:57.419Z,93950.00
2022-11-23T19:59:27.222Z,93934.00
2022-11-23T20:01:55.316Z,93934.00
2022-11-23T20:04:23.403Z,93931.00
2022-11-23T20:06:51.587Z,93937.00
2022-11-23T20:09:21.067Z,93947.00
2022-11-23T20:11:51.803Z,93955.00
2022-11-23T20:14:20.274Z,93976.00
2022-11-23T20:16:48.735Z,93974.00
2022-11-23T20:19:16.879Z,93990.00
2022-11-23T20:21:45.040Z,93990.00
2022-11-23T20:24:15.010Z,94017.00
2022-11-23T20:26:44.107Z,94005.00
2022-11-23T20:29:14.678Z,93988.00
2022-11-23T20:31:42.987Z,93976.00
2022-11-23T20:34:16.734Z,94010.00
2022-11-23T20:36:48.126Z,94007.00
2022-11-23T20:39:16.410Z,93989.00
2022-11-23T20:41:45.011Z,93980.00
2022-11-23T20:44:15.666Z,94006.00
2022-11-23T20:49:33.362Z,94028.00
2022-11-23T20:52:02.658Z,95465.00
2022-11-23T20:54:30.825Z,95478.00
2022-11-23T20:57:00.332Z,95490.00
2022-11-23T20:59:30.259Z,94033.00
2022-11-23T21:01:58.509Z,94017.00
2022-11-23T21:04:27.037Z,94073.00
2022-11-23T21:06:55.583Z,94044.00
2022-11-23T21:09:23.713Z,94031.00
2022-11-23T21:12:09.211Z,94057.00
2022-11-23T21:14:38.802Z,94089.00
2022-11-23T21:17:07.097Z,94119.00
2022-11-23T21:19:37.539Z,94210.00
2022-11-23T21:22:07.847Z,94033.00
2022-11-23T21:24:36.672Z,94059.00
2022-11-23T21:27:07.211Z,94085.00
2022-11-23T21:29:35.835Z,94140.00
2022-11-23T21:32:05.993Z,94112.00
2022-11-23T21:34:34.598Z,94148.00
2022-11-23T21:37:02.908Z,94453.00
2022-11-23T21:39:32.282Z,94324.00
2022-11-23T21:42:00.458Z,94315.00
2022-11-23T21:44:28.540Z,94259.00
2022-11-23T21:46:56.732Z,94324.00
2022-11-23T21:49:28.302Z,94449.00
2022-11-23T21:51:56.358Z,94376.00
2022-11-23T21:54:24.433Z,94530.00
2022-11-23T21:56:52.502Z,94435.00
2022-11-23T21:59:20.561Z,94404.00
2022-11-23T22:01:48.638Z,94416.00
2022-11-23T22:04:17.045Z,94410.00
2022-11-23T22:06:46.588Z,94467.00
2022-11-23T22:09:15.566Z,94528.00
2022-11-23T22:11:45.599Z,94471.00
2022-11-23T22:14:18.327Z,94491.00
2022-11-23T22:16:49.531Z,94519.00
2022-11-23T22:19:18.703Z,94484.00
2022-11-23T22:21:48.198Z,94391.00
2022-11-23T22:24:18.496Z,94384.00
2022-11-23T22:26:48.525Z,94388.00
2022-11-23T22:29:17.209Z,94419.00
2022-11-23T22:31:45.378Z,94420.00
2022-11-23T22:34:15.290Z,94452.00
2022-11-23T22:36:43.620Z,94433.00
2022-11-23T22:39:13.026Z,94452.00
2022-11-23T22:41:41.079Z,94423.00
2022-11-23T22:44:11.282Z,94475.00
2022-11-23T22:46:40.451Z,94463.00
2022-11-23T22:49:08.699Z,94434.00
2022-11-23T22:51:36.881Z,94476.00
2022-11-23T22:54:05.490Z,94400.00
2022-11-23T22:56:34.932Z,94390.00
2022-11-23T22:59:03.291Z,94440.00
2022-11-23T23:01:32.545Z,94435.00
2022-11-23T23:04:02.973Z,94411.00
2022-11-23T23:06:34.735Z,94517.00
2022-11-23T23:09:06.640Z,94374.00
2022-11-23T23:11:37.206Z,94424.00
2022-11-23T23:14:05.652Z,94401.00
2022-11-23T23:16:34.036Z,94408.00
2022-11-23T23:19:03.397Z,94680.00
2022-11-23T23:21:31.567Z,94560.00
2022-11-23T23:24:01.364Z,94615.00
2022-11-23T23:26:30.357Z,94611.00
2022-11-23T23:29:01.675Z,94563.00
2022-11-23T23:31:30.808Z,94507.00
2022-11-23T23:34:00.849Z,94547.00
2022-11-23T23:36:29.507Z,94547.00
2022-11-23T23:38:58.188Z,94558.00
2022-11-23T23:41:26.302Z,94663.00
2022-11-23T23:43:54.370Z,94655.00
2022-11-23T23:46:23.895Z,94572.00
2022-11-23T23:48:52.119Z,94587.00
2022-11-23T23:51:23.249Z,94537.00
2022-11-23T23:53:52.756Z,95591.00
2022-11-23T23:56:23.335Z,94660.00
2022-11-23T23:58:52.037Z,94602.00
